Time;durP1;ratioP1;P1;durP2;ratioP2;P2;SDS_P1;SDS_P2;PMS_P1;PMS_P2;Temp;Humidity;BMP_temperature;BMP_pressure;BME280_temperature;BME280_humidity;BME280_pressure;Samples;Min_cycle;Max_cycle;Signal;HPM_P1;HPM_P2
2021/04/24 00:01:07;;;;;;;8.27;2.15;;;;;;;4.21;48.04;102778.75;5011913;28;20445;-68
2021/04/24 00:03:33;;;;;;;5.07;1.42;;;;;;;4.24;48.14;102783.97;5012516;28;20037;-67
2021/04/24 00:05:59;;;;;;;10.73;1.45;;;;;;;4.14;48.26;102782.03;5012964;28;20049;-71
2021/04/24 00:08:25;;;;;;;8.55;2.38;;;;;;;4.23;47.94;102777.06;5013727;28;20034;-71
2021/04/24 00:10:50;;;;;;;6.57;1.00;;;;;;;4.29;47.68;102782.31;5015170;28;20485;-71
2021/04/24 00:13:16;;;;;;;7.22;2.60;;;;;;;4.29;47.25;102779.72;5014240;28;20113;-71
2021/04/24 00:15:43;;;;;;;8.65;1.77;;;;;;;4.29;47.35;102777.13;5012799;28;20056;-71
2021/04/24 00:18:10;;;;;;;5.43;1.83;;;;;;;4.14;47.76;102776.88;5015981;28;20602;-71
2021/04/24 00:20:36;;;;;;;4.60;1.55;;;;;;;4.14;47.91;102776.88;5014259;28;20034;-71
2021/04/24 00:23:02;;;;;;;6.60;1.15;;;;;;;4.21;47.60;102770.97;5012841;28;20683;-71
2021/04/24 00:25:28;;;;;;;4.90;1.50;;;;;;;4.22;47.53;102777.88;5013755;28;20453;-69
2021/04/24 00:27:54;;;;;;;8.43;1.58;;;;;;;4.27;47.57;102778.81;5029030;28;20198;-68
2021/04/24 00:30:20;;;;;;;8.52;1.52;;;;;;;4.14;47.69;102775.19;5016716;28;20036;-70
2021/04/24 00:32:46;;;;;;;3.40;1.40;;;;;;;4.10;47.81;102775.97;5010589;28;20037;-71
2021/04/24 00:35:13;;;;;;;4.47;1.73;;;;;;;4.11;48.01;102776.84;5013264;28;20029;-71
2021/04/24 00:37:38;;;;;;;4.63;1.48;;;;;;;4.13;47.99;102765.66;5013201;28;20042;-71
2021/04/24 00:40:06;;;;;;;6.20;2.00;;;;;;;4.06;48.29;102774.16;5010771;28;20037;-71
2021/04/24 00:42:31;;;;;;;5.53;2.13;;;;;;;4.30;47.64;102773.72;5011928;28;20038;-72
2021/04/24 00:44:57;;;;;;;5.05;1.33;;;;;;;4.16;48.36;102776.09;5012419;28;20303;-71
2021/04/24 00:47:24;;;;;;;5.75;1.48;;;;;;;4.21;48.30;102768.38;5012993;28;20030;-71
2021/04/24 00:49:51;;;;;;;3.83;1.20;;;;;;;4.15;48.65;102776.03;5012350;28;20033;-71
2021/04/24 00:52:17;;;;;;;5.78;2.05;;;;;;;4.12;48.74;102770.78;5012515;28;20041;-71
2021/04/24 00:54:43;;;;;;;8.60;1.13;;;;;;;4.04;48.90;102773.25;5015007;28;20029;-72
2021/04/24 00:57:10;;;;;;;11.40;2.45;;;;;;;4.07;49.33;102764.69;4995829;28;20414;-68
2021/04/24 00:59:40;;;;;;;6.60;1.52;;;;;;;4.01;49.31;102776.66;5020421;28;20030;-69
2021/04/24 01:02:07;;;;;;;7.55;1.60;;;;;;;4.31;48.58;102779.75;5019452;28;20478;-68
2021/04/24 01:04:33;;;;;;;8.70;1.95;;;;;;;4.35;48.63;102777.25;5012586;28;20018;-68
2021/04/24 01:06:59;;;;;;;5.78;1.55;;;;;;;4.32;48.79;102773.72;5011744;28;20490;-67
2021/04/24 01:09:25;;;;;;;7.30;1.73;;;;;;;4.29;48.97;102771.97;5012616;28;20038;-68
2021/04/24 01:11:51;;;;;;;7.45;3.10;;;;;;;4.29;49.27;102784.03;4997493;28;20061;-67
2021/04/24 01:14:16;;;;;;;10.43;2.38;;;;;;;4.32;49.21;102792.75;5009842;28;20116;-69
2021/04/24 01:16:43;;;;;;;10.50;2.17;;;;;;;4.45;48.89;102778.25;5028619;28;20049;-69
2021/04/24 01:19:23;;;;;;;9.00;2.65;;;;;;;4.35;49.08;102766.88;5011089;28;20533;-68
2021/04/24 01:21:52;;;;;;;10.73;2.28;;;;;;;4.29;49.67;102766.78;5013252;28;20148;-68
2021/04/24 01:24:19;;;;;;;6.45;2.38;;;;;;;4.27;49.84;102765.88;5013716;28;20037;-68
2021/04/24 01:26:45;;;;;;;7.22;2.30;;;;;;;4.29;49.85;102756.44;5015727;28;20401;-68
2021/04/24 01:29:11;;;;;;;7.90;2.33;;;;;;;4.32;49.80;102761.69;5012075;28;20033;-67
2021/04/24 01:31:38;;;;;;;6.75;2.05;;;;;;;4.36;49.85;102767.75;5020278;28;20332;-68
2021/04/24 01:34:05;;;;;;;10.35;2.65;;;;;;;4.43;49.95;102764.41;5012826;28;20049;-68
2021/04/24 01:36:31;;;;;;;19.40;2.92;;;;;;;4.34;50.36;102757.41;5011604;28;20079;-68
2021/04/24 01:38:57;;;;;;;6.03;1.92;;;;;;;4.35;50.16;102760.84;5012031;28;20126;-69
2021/04/24 01:41:22;;;;;;;10.43;3.38;;;;;;;4.49;50.22;102768.84;5013476;28;20348;-69
2021/04/24 01:43:55;;;;;;;5.03;1.98;;;;;;;4.63;49.65;102751.78;5012916;28;20026;-69
2021/04/24 01:46:22;;;;;;;7.88;2.38;;;;;;;4.51;50.21;102751.59;5009235;28;20022;-69
2021/04/24 01:48:48;;;;;;;7.10;2.28;;;;;;;4.27;50.84;102752.06;5011035;28;20029;-69
2021/04/24 01:51:14;;;;;;;6.55;1.95;;;;;;;4.14;51.36;102758.75;5012386;28;20040;-68
2021/04/24 01:53:40;;;;;;;6.38;1.95;;;;;;;4.51;50.38;102759.38;5012895;28;20038;-69
2021/04/24 01:56:08;;;;;;;9.65;2.42;;;;;;;4.31;51.03;102752.16;5012467;28;20081;-69
2021/04/24 01:58:33;;;;;;;11.00;2.25;;;;;;;4.48;50.41;102756.75;5011587;28;20482;-69
2021/04/24 02:01:03;;;;;;;8.88;2.30;;;;;;;4.45;50.38;102757.53;5015553;28;20053;-70
2021/04/24 02:03:30;;;;;;;15.63;2.50;;;;;;;4.65;50.39;102757.84;5022794;28;20111;-70
2021/04/24 02:05:56;;;;;;;10.85;1.90;;;;;;;4.60;50.00;102751.75;5016781;28;20639;-70
2021/04/24 02:08:25;;;;;;;9.75;2.65;;;;;;;4.74;50.00;102750.22;5015884;28;20037;-70
2021/04/24 02:10:54;;;;;;;5.30;1.30;;;;;;;4.77;50.03;102765.81;5014752;28;20107;-71
2021/04/24 02:13:27;;;;;;;9.50;2.70;;;;;;;4.66;50.19;102757.03;5015943;28;20033;-70
2021/04/24 02:15:53;;;;;;;5.78;1.40;;;;;;;4.82;49.86;102748.59;5015033;28;20030;-71
2021/04/24 02:18:19;;;;;;;12.88;2.13;;;;;;;4.84;49.62;102746.06;5016129;28;20083;-70
2021/04/24 02:20:46;;;;;;;6.43;1.80;;;;;;;4.80;49.92;102747.72;5015357;28;20030;-71
2021/04/24 02:23:14;;;;;;;7.70;2.08;;;;;;;5.00;49.19;102747.16;5017660;28;20034;-70
2021/04/24 02:25:41;;;;;;;5.72;1.58;;;;;;;5.14;49.01;102750.78;5013404;28;20477;-70
2021/04/24 02:28:07;;;;;;;8.77;1.83;;;;;;;4.86;49.26;102751.25;5015858;28;20630;-71
2021/04/24 02:30:34;;;;;;;7.07;1.73;;;;;;;4.92;49.35;102744.47;5015116;28;20048;-70
2021/04/24 02:32:59;;;;;;;6.78;1.77;;;;;;;5.18;48.33;102747.38;5015052;28;20033;-71
2021/04/24 02:35:39;;;;;;;5.53;2.08;;;;;;;5.10;48.60;102754.22;5014139;28;20033;-72
2021/04/24 02:38:05;;;;;;;5.32;1.25;;;;;;;5.11;48.40;102748.16;5022623;28;20038;-68
2021/04/24 02:40:31;;;;;;;9.40;1.92;;;;;;;4.96;48.67;102737.59;5013674;28;20038;-68
2021/04/24 02:42:56;;;;;;;5.18;1.92;;;;;;;5.04;48.41;102757.59;5012204;28;20040;-70
2021/04/24 02:45:21;;;;;;;4.22;1.85;;;;;;;4.99;48.34;102755.78;5015552;28;20099;-70
2021/04/24 02:47:47;;;;;;;8.25;1.80;;;;;;;5.05;48.37;102758.44;5012311;28;20030;-70
2021/04/24 02:50:16;;;;;;;4.75;1.60;;;;;;;4.93;48.08;102753.97;5018516;28;20038;-71
2021/04/24 02:52:42;;;;;;;8.80;2.13;;;;;;;4.97;48.05;102760.09;5015262;28;20121;-70
2021/04/24 02:55:08;;;;;;;7.38;1.83;;;;;;;4.91;47.87;102762.59;5014881;28;20112;-69
2021/04/24 02:57:34;;;;;;;8.18;2.05;;;;;;;4.67;48.75;102750.97;5020842;28;20486;-68
2021/04/24 02:59:59;;;;;;;13.32;2.35;;;;;;;4.68;48.68;102741.50;5016521;28;20147;-67
2021/04/24 03:02:25;;;;;;;7.68;1.90;;;;;;;4.83;48.21;102754.66;5014203;28;20040;-67
2021/04/24 03:04:50;;;;;;;7.10;1.60;;;;;;;4.67;48.44;102763.94;5014222;28;20045;-70
2021/04/24 03:07:16;;;;;;;7.53;1.65;;;;;;;4.70;48.35;102756.22;5015185;28;20333;-70
2021/04/24 03:09:41;;;;;;;10.23;1.50;;;;;;;4.72;48.17;102751.03;5013989;28;20421;-70
2021/04/24 03:12:07;;;;;;;4.68;1.40;;;;;;;4.47;48.68;102745.50;5014832;28;20117;-68
2021/04/24 03:14:34;;;;;;;7.03;1.67;;;;;;;4.70;48.42;102758.81;5013476;28;20029;-68
2021/04/24 03:16:59;;;;;;;7.75;1.65;;;;;;;4.79;48.00;102751.16;5017929;28;20033;-68
2021/04/24 03:19:25;;;;;;;9.98;1.98;;;;;;;4.77;47.86;102746.81;5021131;28;20041;-69
2021/04/24 03:21:50;;;;;;;12.38;1.67;;;;;;;4.49;48.24;102748.97;5018115;28;20462;-69
2021/04/24 03:24:16;;;;;;;7.05;2.35;;;;;;;4.59;48.19;102757.78;5013660;28;20026;-69
2021/04/24 03:26:41;;;;;;;7.05;1.38;;;;;;;4.43;48.52;102754.06;5012067;28;20577;-69
2021/04/24 03:29:07;;;;;;;6.93;2.42;;;;;;;4.61;47.88;102753.50;5011474;28;20084;-68
2021/04/24 03:31:32;;;;;;;8.63;1.67;;;;;;;4.52;48.37;102749.03;5014715;28;20033;-72
2021/04/24 03:33:58;;;;;;;6.85;1.20;;;;;;;4.48;48.41;102756.75;5014987;28;20057;-73
2021/04/24 03:36:24;;;;;;;10.68;1.83;;;;;;;4.58;47.91;102750.84;5017970;28;20072;-73
2021/04/24 03:38:49;;;;;;;6.13;1.58;;;;;;;4.59;47.68;102745.69;5016860;28;20090;-72
2021/04/24 03:41:15;;;;;;;8.25;1.40;;;;;;;4.52;47.81;102737.78;5013298;28;20660;-69
2021/04/24 03:43:41;;;;;;;8.18;2.08;;;;;;;4.52;47.93;102730.03;5013882;28;20029;-71
2021/04/24 03:46:06;;;;;;;11.15;2.30;;;;;;;4.58;47.75;102728.41;5014560;28;20529;-72
2021/04/24 03:48:32;;;;;;;4.80;1.40;;;;;;;4.03;48.62;102735.31;5014771;28;20688;-70
2021/04/24 03:50:59;;;;;;;10.27;2.00;;;;;;;4.58;47.61;102738.75;5013749;28;20036;-73
2021/04/24 03:53:24;;;;;;;5.75;2.10;;;;;;;4.71;46.92;102729.44;5014566;28;20030;-69
2021/04/24 03:55:50;;;;;;;7.63;1.92;;;;;;;4.63;47.08;102741.41;5014202;28;20379;-74
2021/04/24 03:58:15;;;;;;;8.48;1.55;;;;;;;4.78;46.96;102739.03;5020525;28;20025;-73
2021/04/24 04:00:41;;;;;;;6.88;1.65;;;;;;;4.68;47.04;102733.75;5016480;28;20029;-73
2021/04/24 04:03:08;;;;;;;4.10;1.35;;;;;;;4.66;47.10;102751.84;5015215;28;20120;-69
2021/04/24 04:05:42;;;;;;;4.13;1.52;;;;;;;4.65;46.91;102755.25;5014641;28;20025;-69
2021/04/24 04:08:10;;;;;;;10.55;1.50;;;;;;;4.63;47.26;102747.50;5012737;28;20036;-69
2021/04/24 04:10:39;;;;;;;9.25;1.10;;;;;;;4.63;47.15;102746.59;5013812;28;20117;-70
2021/04/24 04:13:06;;;;;;;11.00;1.58;;;;;;;4.76;46.90;102751.09;5030864;28;20041;-70
2021/04/24 04:15:32;;;;;;;12.93;1.95;;;;;;;4.61;46.83;102753.50;5011778;28;20021;-70
2021/04/24 04:18:02;;;;;;;9.27;1.52;;;;;;;4.79;46.37;102746.00;5014154;28;20547;-70
2021/04/24 04:20:27;;;;;;;9.35;1.83;;;;;;;4.80;46.02;102750.31;5013568;28;20113;-70
2021/04/24 04:22:53;;;;;;;11.43;1.48;;;;;;;4.81;45.83;102752.06;5010001;28;20136;-70
2021/04/24 04:25:18;;;;;;;3.17;0.80;;;;;;;4.95;45.85;102762.66;5013030;28;20638;-68
2021/04/24 04:27:44;;;;;;;7.38;1.52;;;;;;;5.10;44.96;102753.31;5013302;28;20026;-71
2021/04/24 04:30:12;;;;;;;8.25;2.40;;;;;;;5.15;45.03;102757.72;5015413;28;20553;-70
2021/04/24 04:32:39;;;;;;;4.97;1.75;;;;;;;5.12;45.09;102756.81;5014080;28;20128;-68
2021/04/24 04:35:06;;;;;;;5.15;1.77;;;;;;;5.15;45.12;102754.28;5011429;28;20038;-69
2021/04/24 04:37:32;;;;;;;10.30;2.58;;;;;;;5.13;45.16;102753.38;5016104;28;20386;-70
2021/04/24 04:39:58;;;;;;;6.07;3.00;;;;;;;5.32;44.67;102757.06;5014557;28;20037;-67
2021/04/24 04:42:24;;;;;;;7.22;1.63;;;;;;;5.43;44.41;102752.88;5013078;28;20029;-68
2021/04/24 04:44:50;;;;;;;7.60;2.13;;;;;;;5.36;44.38;102751.06;5011544;28;20075;-67
2021/04/24 04:47:15;;;;;;;8.82;1.75;;;;;;;5.42;44.68;102757.19;5013974;28;20029;-68
2021/04/24 04:49:41;;;;;;;8.70;2.00;;;;;;;5.46;44.74;102756.38;5013413;28;20063;-67
2021/04/24 04:52:06;;;;;;;10.48;2.13;;;;;;;5.48;44.64;102756.41;5012842;28;20041;-69
2021/04/24 04:54:32;;;;;;;6.78;1.50;;;;;;;5.62;43.93;102760.00;5014012;28;20104;-69
2021/04/24 04:56:57;;;;;;;5.93;1.45;;;;;;;5.58;43.92;102753.03;5016381;28;20071;-68
2021/04/24 04:59:23;;;;;;;6.20;1.48;;;;;;;5.54;44.26;102756.47;5003618;28;20022;-67
2021/04/24 05:01:48;;;;;;;6.43;1.50;;;;;;;5.61;44.13;102758.28;5009352;28;20430;-68
2021/04/24 05:04:14;;;;;;;7.25;1.40;;;;;;;5.79;43.94;102759.31;5014422;28;20072;-69
2021/04/24 05:06:39;;;;;;;5.97;1.15;;;;;;;5.78;43.94;102749.81;5013126;28;20033;-68
2021/04/24 05:09:05;;;;;;;5.80;1.67;;;;;;;5.79;44.34;102761.91;5011747;28;20540;-69
2021/04/24 05:11:30;;;;;;;4.47;1.23;;;;;;;5.74;43.70;102758.41;5014779;28;20038;-69
2021/04/24 05:13:56;;;;;;;8.48;1.42;;;;;;;5.76;44.13;102765.34;5012705;28;20481;-69
2021/04/24 05:16:21;;;;;;;6.85;1.73;;;;;;;5.66;44.19;102764.38;5010730;28;20025;-69
2021/04/24 05:18:47;;;;;;;7.88;1.23;;;;;;;6.02;43.28;102767.34;5012659;28;20082;-69
2021/04/24 05:21:12;;;;;;;8.80;1.55;;;;;;;6.07;43.73;102763.91;5014711;28;20033;-67
2021/04/24 05:23:38;;;;;;;10.23;1.88;;;;;;;6.40;43.21;102762.50;5016120;28;20059;-67
2021/04/24 05:26:03;;;;;;;5.00;1.08;;;;;;;6.62;42.02;102757.44;5011107;28;20069;-68
2021/04/24 05:28:29;;;;;;;5.63;0.98;;;;;;;7.51;40.28;102752.66;5011486;28;20086;-68
2021/04/24 05:30:54;;;;;;;5.95;1.58;;;;;;;8.84;37.28;102754.50;5013754;28;20128;-67
2021/04/24 05:33:19;;;;;;;5.82;1.65;;;;;;;8.40;38.28;102757.16;5012851;28;20561;-68
2021/04/24 05:35:45;;;;;;;11.07;1.42;;;;;;;8.20;38.67;102759.75;5016480;28;20029;-69
2021/04/24 05:38:10;;;;;;;9.85;1.52;;;;;;;10.39;34.71;102760.56;5017688;28;20520;-68
2021/04/24 05:40:36;;;;;;;4.40;0.65;;;;;;;10.46;34.24;102754.41;5014235;28;20057;-67
2021/04/24 05:43:02;;;;;;;15.65;1.58;;;;;;;11.15;33.34;102756.31;5016289;28;20052;-67
2021/04/24 05:45:27;;;;;;;7.53;1.25;;;;;;;10.73;32.81;102752.41;5016426;28;20038;-68
2021/04/24 05:47:53;;;;;;;11.35;1.42;;;;;;;10.58;33.55;102750.81;5018118;28;20120;-68
2021/04/24 05:50:21;;;;;;;13.93;1.83;;;;;;;10.18;35.97;102757.25;5016906;28;20390;-68
2021/04/24 05:52:46;;;;;;;12.70;1.00;;;;;;;8.81;37.33;102753.63;5013720;28;20032;-67
2021/04/24 05:55:13;;;;;;;9.57;1.50;;;;;;;9.53;36.37;102756.81;5016892;28;20462;-69
2021/04/24 05:57:39;;;;;;;9.40;1.35;;;;;;;9.07;36.81;102759.63;5016268;28;20124;-68
2021/04/24 06:00:25;;;;;;;9.63;1.02;;;;;;;8.92;38.26;102757.97;5031520;28;20060;-68
2021/04/24 06:02:50;;;;;;;8.15;1.17;;;;;;;9.24;37.81;102756.97;5016479;28;20052;-68
2021/04/24 06:05:16;;;;;;;9.65;1.20;;;;;;;9.70;36.30;102764.56;5015887;28;20038;-68
2021/04/24 06:07:42;;;;;;;9.52;0.75;;;;;;;10.42;35.46;102760.56;5014317;28;20489;-69
2021/04/24 06:10:10;;;;;;;6.95;1.42;;;;;;;11.23;34.17;102750.97;5016441;28;20093;-68
2021/04/24 06:12:36;;;;;;;11.68;1.70;;;;;;;12.53;31.89;102755.09;5021862;28;20029;-67
2021/04/24 06:15:03;;;;;;;9.32;1.27;;;;;;;12.67;31.09;102753.94;5013303;28;20512;-68
2021/04/24 06:17:28;;;;;;;9.68;1.30;;;;;;;12.02;31.87;102759.47;5013683;28;20033;-68
2021/04/24 06:19:53;;;;;;;12.38;1.88;;;;;;;11.85;31.68;102761.47;5016911;28;20087;-68
2021/04/24 06:22:19;;;;;;;14.73;2.05;;;;;;;12.04;31.94;102751.56;5011927;28;20092;-68
2021/04/24 06:24:45;;;;;;;8.02;1.45;;;;;;;12.17;32.36;102760.09;5011383;28;20838;-68
2021/04/24 06:27:11;;;;;;;10.68;1.52;;;;;;;12.59;31.12;102761.09;5010882;28;20570;-68
2021/04/24 06:29:36;;;;;;;10.27;1.05;;;;;;;12.61;31.40;102764.56;5013904;28;20700;-67
2021/04/24 06:32:03;;;;;;;7.50;1.58;;;;;;;12.34;31.24;102760.69;5012945;28;20057;-67
2021/04/24 06:34:28;;;;;;;17.05;1.60;;;;;;;12.50;30.81;102764.75;5014980;28;20014;-67
2021/04/24 06:36:53;;;;;;;12.05;1.58;;;;;;;12.45;31.59;102763.13;5014678;28;20383;-68
2021/04/24 06:39:19;;;;;;;17.08;2.33;;;;;;;12.40;31.34;102762.31;5015600;28;20037;-67
2021/04/24 06:41:45;;;;;;;16.52;2.05;;;;;;;11.83;32.00;102752.78;5013031;28;22197;-68
2021/04/24 06:44:11;;;;;;;15.80;1.63;;;;;;;11.09;34.19;102764.22;5023512;28;20584;-69
2021/04/24 06:46:37;;;;;;;13.25;1.70;;;;;;;11.94;32.06;102763.09;5016750;28;20108;-68
2021/04/24 06:49:02;;;;;;;9.70;1.45;;;;;;;13.25;31.12;102753.69;5013036;28;20493;-69
2021/04/24 06:51:28;;;;;;;8.85;1.77;;;;;;;12.88;29.86;102767.56;5018145;28;20036;-69
2021/04/24 06:53:54;;;;;;;5.80;0.98;;;;;;;12.73;30.97;102758.22;5015328;28;20030;-69
2021/04/24 06:56:20;;;;;;;9.07;1.63;;;;;;;13.28;29.46;102753.63;5016097;28;20038;-70
2021/04/24 06:58:45;;;;;;;13.82;1.60;;;;;;;13.09;30.53;102755.78;5013259;28;20497;-69
2021/04/24 07:01:10;;;;;;;13.75;1.40;;;;;;;12.55;31.28;102759.41;5016135;28;20034;-69
2021/04/24 07:03:37;;;;;;;10.68;1.73;;;;;;;11.91;32.17;102761.41;5017057;28;20577;-68
2021/04/24 07:06:04;;;;;;;14.30;1.27;;;;;;;11.82;32.70;102758.88;5018835;28;20026;-68
2021/04/24 07:08:29;;;;;;;14.48;1.15;;;;;;;11.49;32.76;102760.25;5012736;28;20509;-68
2021/04/24 07:10:55;;;;;;;15.10;1.20;;;;;;;11.89;32.37;102747.44;5014080;28;20056;-69
2021/04/24 07:13:21;;;;;;;14.35;1.10;;;;;;;11.88;32.27;102761.41;5014536;28;20029;-69
2021/04/24 07:15:47;;;;;;;9.50;1.05;;;;;;;13.04;32.05;102762.88;5016747;28;20025;-69
2021/04/24 07:18:12;;;;;;;8.50;1.23;;;;;;;13.61;29.30;102772.22;5015592;28;20402;-68
2021/04/24 07:20:38;;;;;;;12.52;1.40;;;;;;;12.74;30.89;102769.63;5016305;28;20072;-69
2021/04/24 07:23:03;;;;;;;11.82;1.10;;;;;;;14.15;28.61;102777.91;5014676;28;20160;-69
2021/04/24 07:25:29;;;;;;;8.77;1.23;;;;;;;14.39;28.72;102766.78;5015339;28;20576;-68
2021/04/24 07:27:55;;;;;;;9.70;1.75;;;;;;;13.96;28.95;102770.50;5021642;28;20084;-70
2021/04/24 07:30:21;;;;;;;16.63;1.55;;;;;;;12.61;30.91;102782.91;5029605;28;20060;-69
2021/04/24 07:32:46;;;;;;;8.30;0.63;;;;;;;14.54;27.71;102769.94;5012937;28;20058;-68
2021/04/24 07:35:12;;;;;;;13.93;1.67;;;;;;;14.68;27.23;102761.66;5013126;28;20030;-68
2021/04/24 07:37:38;;;;;;;7.03;0.57;;;;;;;15.19;26.81;102768.09;5012245;28;20066;-66
2021/04/24 07:40:06;;;;;;;13.80;1.10;;;;;;;16.35;24.71;102768.84;5013681;28;20040;-68
2021/04/24 07:42:31;;;;;;;7.15;0.73;;;;;;;16.84;22.95;102768.91;5021182;28;20340;-67
2021/04/24 07:44:57;;;;;;;7.50;1.55;;;;;;;16.77;22.58;102760.34;5014413;28;20141;-68
2021/04/24 07:47:22;;;;;;;6.53;0.85;;;;;;;17.18;21.86;102767.63;5014729;28;20532;-68
2021/04/24 07:49:47;;;;;;;16.05;1.08;;;;;;;17.58;21.88;102767.00;5012767;28;20453;-68
2021/04/24 07:52:14;;;;;;;12.70;1.23;;;;;;;17.13;21.09;102762.53;5013099;28;20266;-68
2021/04/24 07:54:43;;;;;;;6.85;0.85;;;;;;;18.22;19.27;102763.47;5013234;28;20044;-68
2021/04/24 07:57:10;;;;;;;4.57;0.50;;;;;;;18.23;19.40;102773.16;5018991;28;20037;-66
2021/04/24 07:59:35;;;;;;;3.85;0.63;;;;;;;18.21;19.85;102767.06;5014936;28;20028;-67
2021/04/24 08:02:01;;;;;;;11.90;0.60;;;;;;;18.60;19.39;102770.69;5016958;28;20409;-68
2021/04/24 08:04:26;;;;;;;6.88;0.43;;;;;;;17.50;19.84;102777.00;5011479;28;20034;-67
2021/04/24 08:06:52;;;;;;;7.90;0.73;;;;;;;18.62;19.22;102782.06;5016402;28;20378;-68
2021/04/24 08:09:17;;;;;;;4.60;0.60;;;;;;;18.33;19.69;102783.34;5013364;28;20030;-68
2021/04/24 08:11:42;;;;;;;4.47;0.90;;;;;;;19.22;18.39;102790.84;5012795;28;20052;-67
2021/04/24 08:14:08;;;;;;;6.32;0.25;;;;;;;18.78;17.93;102788.41;5011721;28;20030;-67
2021/04/24 08:16:36;;;;;;;4.78;0.38;;;;;;;18.17;18.66;102783.13;5012662;28;20033;-68
2021/04/24 08:19:01;;;;;;;8.82;0.55;;;;;;;18.81;17.94;102775.03;5013080;28;20062;-67
2021/04/24 08:21:27;;;;;;;2.40;0.20;;;;;;;18.52;18.52;102781.63;5015870;28;20025;-68
2021/04/24 08:23:58;;;;;;;4.70;0.85;;;;;;;18.02;19.23;102780.16;5013458;28;20100;-67
2021/04/24 08:26:25;;;;;;;7.10;0.82;;;;;;;17.86;19.42;102789.66;5014726;28;20278;-68
2021/04/24 08:28:51;;;;;;;1.98;0.47;;;;;;;18.33;18.78;102783.34;5011174;28;20096;-69
2021/04/24 08:31:16;;;;;;;3.05;0.30;;;;;;;17.76;19.09;102783.03;5014634;28;20565;-67
2021/04/24 08:33:42;;;;;;;4.45;0.22;;;;;;;16.47;18.99;102798.38;5014439;28;20099;-67
2021/04/24 08:36:07;;;;;;;2.03;0.38;;;;;;;16.87;19.64;102786.41;5012645;28;20038;-68
2021/04/24 08:38:33;;;;;;;5.25;0.65;;;;;;;16.65;20.54;102791.59;4997312;28;20212;-66
2021/04/24 08:40:58;;;;;;;2.83;0.45;;;;;;;15.92;20.35;102788.72;5014140;28;20057;-67
2021/04/24 08:43:25;;;;;;;4.07;0.30;;;;;;;15.69;20.28;102781.53;5012080;28;20512;-66
2021/04/24 08:45:53;;;;;;;5.35;0.40;;;;;;;15.93;19.80;102782.53;5011154;28;20025;-69
2021/04/24 08:48:21;;;;;;;3.03;0.55;;;;;;;15.47;18.79;102786.63;5012558;28;20191;-69
2021/04/24 08:50:47;;;;;;;1.35;0.32;;;;;;;14.98;19.75;102785.41;5013269;28;20029;-69
2021/04/24 08:53:17;;;;;;;1.65;0.20;;;;;;;14.41;19.65;102793.94;5013069;28;20033;-69
2021/04/24 08:55:43;;;;;;;4.13;0.30;;;;;;;14.49;20.53;102798.13;5012749;28;20389;-67
2021/04/24 08:58:08;;;;;;;4.93;0.30;;;;;;;14.27;21.08;102800.41;5010732;28;20037;-67
2021/04/24 09:00:37;;;;;;;1.50;0.20;;;;;;;14.52;20.18;102799.78;5013451;28;20033;-67
2021/04/24 09:03:16;;;;;;;0.88;0.20;;;;;;;14.71;19.57;102808.09;5012283;28;20033;-67
2021/04/24 09:05:42;;;;;;;2.95;0.50;;;;;;;14.33;20.91;102807.28;5018133;28;20029;-66
2021/04/24 09:08:09;;;;;;;1.00;0.13;;;;;;;12.69;22.93;102803.78;5011696;28;20037;-68
2021/04/24 09:10:38;;;;;;;2.88;0.10;;;;;;;13.47;21.21;102814.50;5016551;28;20025;-67
2021/04/24 09:13:03;;;;;;;2.30;0.45;;;;;;;13.46;21.45;102805.75;5019173;28;20038;-68
2021/04/24 09:15:29;;;;;;;2.17;0.52;;;;;;;13.29;22.88;102805.25;5016476;28;20061;-68
2021/04/24 09:18:02;;;;;;;4.80;0.30;;;;;;;13.31;22.27;102809.56;5019181;28;20615;-67
2021/04/24 09:20:31;;;;;;;2.83;0.20;;;;;;;13.23;20.85;102813.28;5016469;28;20033;-67
2021/04/24 09:23:06;;;;;;;0.70;0.10;;;;;;;12.86;20.70;102821.84;5016461;28;20056;-67
2021/04/24 09:25:35;;;;;;;2.05;0.10;;;;;;;13.69;20.57;102813.16;5015548;28;20390;-71
2021/04/24 09:28:03;;;;;;;3.20;0.25;;;;;;;13.31;21.62;102813.97;5018090;28;20318;-71
2021/04/24 09:30:31;;;;;;;0.88;0.10;;;;;;;12.73;22.16;102812.47;5017877;28;20120;-69
2021/04/24 09:33:05;;;;;;;2.35;0.10;;;;;;;13.00;22.43;102809.31;5024425;28;20524;-69
2021/04/24 09:35:44;;;;;;;0.52;0.03;;;;;;;11.62;19.71;102811.53;5017872;28;20053;-69
2021/04/24 09:38:17;;;;;;;1.05;0.10;;;;;;;11.48;20.95;102803.00;5023316;28;20388;-69
2021/04/24 09:40:42;;;;;;;0.98;0.10;;;;;;;11.73;21.18;102809.66;5016016;28;20067;-68
2021/04/24 09:43:08;;;;;;;0.98;0.13;;;;;;;12.17;20.86;102821.25;5013527;28;20135;-69
2021/04/24 09:45:40;;;;;;;2.97;0.28;;;;;;;12.29;18.73;102823.69;5015445;28;20033;-70
2021/04/24 09:48:22;;;;;;;;;;;;;;;12.93;18.44;102823.47;5017615;28;20037;-69
2021/04/24 09:50:48;;;;;;;4.40;0.25;;;;;;;13.47;19.20;102819.75;5031623;28;20093;-69
2021/04/24 09:53:23;;;;;;;1.27;0.20;;;;;;;12.83;19.62;102811.44;5016865;28;20140;-72
2021/04/24 09:55:51;;;;;;;3.78;0.10;;;;;;;12.69;20.80;102811.66;5018503;28;20021;-69
2021/04/24 09:58:26;;;;;;;1.73;0.20;;;;;;;13.00;21.68;102813.72;5017468;28;20037;-69
2021/04/24 10:00:52;;;;;;;1.88;0.03;;;;;;;13.23;21.82;102821.16;5017144;28;20537;-69
2021/04/24 10:03:39;;;;;;;2.22;0.20;;;;;;;13.77;19.08;102813.00;5016467;28;20122;-69
2021/04/24 10:06:27;;;;;;;1.30;0.25;;;;;;;13.58;20.73;102824.81;5018128;28;20049;-69
2021/04/24 10:09:18;;;;;;;1.58;0.30;;;;;;;13.36;22.84;102812.13;5013451;28;20037;-69
2021/04/24 10:12:08;;;;;;;3.03;0.25;;;;;;;12.55;25.09;102813.63;5014898;28;20061;-69
2021/04/24 10:14:46;;;;;;;2.55;0.40;;;;;;;11.73;26.80;102814.00;5018681;28;20025;-69
2021/04/24 10:17:14;;;;;;;5.63;0.35;;;;;;;11.57;27.61;102814.22;5014250;28;20527;-69
2021/04/24 10:19:41;;;;;;;9.98;0.43;;;;;;;10.95;28.93;102823.69;5013590;28;20390;-69
2021/04/24 10:22:10;;;;;;;4.85;0.30;;;;;;;11.19;28.00;102819.94;5010943;28;20041;-71
2021/04/24 10:24:36;;;;;;;2.95;0.30;;;;;;;10.82;29.47;102829.06;5014043;28;20444;-69
2021/04/24 10:27:03;;;;;;;9.73;0.63;;;;;;;10.79;29.52;102829.06;5012262;28;20045;-70
2021/04/24 10:29:29;;;;;;;6.05;0.63;;;;;;;10.68;30.62;102840.50;4995936;28;20029;-69
2021/04/24 10:31:55;;;;;;;10.05;0.70;;;;;;;10.94;31.27;102843.75;5013336;28;20033;-69
2021/04/24 10:34:21;;;;;;;3.78;0.45;;;;;;;11.81;29.26;102820.91;5015527;28;20029;-70
2021/04/24 10:36:47;;;;;;;55.03;3.85;;;;;;;11.74;29.80;102829.72;5012840;28;20029;-70
2021/04/24 10:39:26;;;;;;;10.48;0.43;;;;;;;12.25;29.16;102829.88;5011783;28;20489;-69
2021/04/24 10:41:54;;;;;;;6.63;0.25;;;;;;;13.19;27.85;102836.09;5012386;28;20056;-70
2021/04/24 10:44:21;;;;;;;3.78;0.30;;;;;;;12.94;28.24;102837.44;5028205;28;20052;-70
2021/04/24 10:46:52;;;;;;;9.63;0.60;;;;;;;11.62;28.18;102837.72;5011312;28;20481;-70
2021/04/24 10:49:28;;;;;;;3.88;1.05;;;;;;;10.90;28.94;102842.03;5014361;28;20091;-70
2021/04/24 10:51:53;;;;;;;5.18;0.57;;;;;;;10.70;30.21;102833.50;5016049;28;20060;-69
2021/04/24 10:54:19;;;;;;;11.38;0.65;;;;;;;12.05;27.61;102827.56;5016585;28;20064;-70
2021/04/24 10:56:45;;;;;;;6.88;0.90;;;;;;;12.06;27.44;102820.53;5013927;28;21094;-70
2021/04/24 10:59:21;;;;;;;6.53;0.25;;;;;;;12.86;24.44;102825.34;5014665;28;20053;-70
2021/04/24 11:02:05;;;;;;;3.45;0.13;;;;;;;13.48;21.56;102826.75;5011867;28;20508;-70
2021/04/24 11:04:40;;;;;;;2.67;0.10;;;;;;;13.14;22.01;102837.94;5011542;28;20053;-69
2021/04/24 11:07:18;;;;;;;2.05;1.02;;;;;;;13.35;22.31;102839.25;5012948;28;20041;-69
2021/04/24 11:09:44;;;;;;;2.15;0.40;;;;;;;13.78;22.15;102834.88;5013035;28;20040;-71
2021/04/24 11:12:16;;;;;;;4.07;0.20;;;;;;;12.88;22.47;102826.16;5013538;28;20045;-73
2021/04/24 11:14:42;;;;;;;5.35;0.40;;;;;;;12.93;23.06;102828.72;5018975;28;20040;-67
2021/04/24 11:17:10;;;;;;;4.50;0.20;;;;;;;13.23;23.43;102821.16;5011545;28;20051;-70
2021/04/24 11:19:47;;;;;;;3.78;0.25;;;;;;;13.65;20.91;102821.16;5011986;28;20107;-69
2021/04/24 11:22:35;;;;;;;1.42;0.35;;;;;;;13.80;21.76;102818.19;5012562;28;20033;-69
2021/04/24 11:25:16;;;;;;;2.15;0.25;;;;;;;13.08;22.83;102828.41;5014672;28;20026;-68
2021/04/24 11:28:09;;;;;;;3.78;0.20;;;;;;;13.06;22.74;102830.19;5011422;28;20049;-69